createdAt,value
2022-12-01T00:01:23.184Z,101763.44
2022-12-01T00:03:50.408Z,101756.97
2022-12-01T00:06:20.711Z,101762.00
2022-12-01T00:09:09.438Z,101770.84
2022-12-01T00:11:38.124Z,101765.09
2022-12-01T00:14:06.052Z,101773.28
2022-12-01T00:16:34.133Z,101769.00
2022-12-01T00:19:01.115Z,101761.66
2022-12-01T00:21:28.155Z,101761.94
2022-12-01T00:23:57.452Z,101762.59
2022-12-01T00:26:25.985Z,101771.91
2022-12-01T00:28:59.421Z,101769.28
2022-12-01T00:31:27.331Z,101765.63
2022-12-01T00:33:54.863Z,101764.81
2022-12-01T00:36:23.076Z,101769.47
2022-12-01T00:38:54.609Z,101766.22
2022-12-01T00:41:22.889Z,101765.69
2022-12-01T00:43:50.838Z,101767.66
2022-12-01T00:46:18.307Z,101764.19
2022-12-01T00:48:45.325Z,101752.94
2022-12-01T00:51:12.253Z,101751.78
2022-12-01T00:53:39.146Z,101768.22
2022-12-01T00:56:06.381Z,101762.75
2022-12-01T00:58:33.282Z,101749.75
2022-12-01T01:01:02.014Z,101742.81
2022-12-01T01:03:30.399Z,101740.75
2022-12-01T01:06:04.071Z,101745.53
2022-12-01T01:08:31.026Z,101734.78
2022-12-01T01:11:00.678Z,101742.09
2022-12-01T01:13:28.351Z,101736.53
2022-12-01T01:16:01.535Z,101732.34
2022-12-01T01:18:29.579Z,101737.06
2022-12-01T01:20:59.618Z,101736.75
2022-12-01T01:23:27.433Z,101735.97
2022-12-01T01:25:54.545Z,101740.88
2022-12-01T01:28:21.483Z,101737.84
2022-12-01T01:30:48.536Z,101734.03
2022-12-01T01:33:15.576Z,101723.34
2022-12-01T01:35:42.468Z,101738.53
2022-12-01T01:38:09.382Z,101735.03
2022-12-01T01:40:44.677Z,101734.28
2022-12-01T01:43:17.386Z,101743.41
2022-12-01T01:45:44.787Z,101745.44
2022-12-01T01:48:14.435Z,101735.06
2022-12-01T01:50:41.707Z,101741.44
2022-12-01T01:53:13.440Z,101738.31
2022-12-01T01:55:40.539Z,101736.22
2022-12-01T01:58:10.191Z,101736.66
2022-12-01T02:00:41.564Z,101745.47
2022-12-01T02:03:12.421Z,101734.75
2022-12-01T02:05:40.551Z,101736.28
2022-12-01T02:08:12.394Z,101741.16
2022-12-01T02:11:20.590Z,101747.69
2022-12-01T02:14:18.973Z,101737.16
2022-12-01T02:17:22.495Z,101742.34
2022-12-01T02:20:35.928Z,101745.31
2022-12-01T02:23:39.445Z,101737.47
2022-12-01T02:26:36.815Z,101731.78
2022-12-01T02:29:40.793Z,101732.53
2022-12-01T02:32:31.613Z,101733.75
2022-12-01T02:35:21.298Z,101730.59
2022-12-01T02:38:24.188Z,101730.41
2022-12-01T02:41:25.566Z,101727.63
2022-12-01T02:44:20.232Z,101725.66
2022-12-01T02:47:14.579Z,101727.63
2022-12-01T02:49:50.852Z,101722.38
2022-12-01T02:52:20.672Z,101728.16
2022-12-01T02:54:51.352Z,101727.06
2022-12-01T02:57:18.529Z,101726.72
2022-12-01T02:59:52.072Z,101721.28
2022-12-01T03:02:42.157Z,101734.13
2022-12-01T03:05:45.158Z,101729.81
2022-12-01T03:08:45.875Z,101719.66
2022-12-01T03:11:27.248Z,101720.31
2022-12-01T03:14:17.037Z,101722.72
2022-12-01T03:16:54.414Z,101707.59
2022-12-01T03:19:54.057Z,101720.25
2022-12-01T03:22:33.613Z,101726.16
2022-12-01T03:25:03.828Z,101721.66
2022-12-01T03:27:37.021Z,101709.13
2022-12-01T03:30:10.282Z,101717.94
2022-12-01T03:32:52.149Z,101713.81
2022-12-01T03:35:33.377Z,101711.22
2022-12-01T03:38:11.241Z,101714.34
2022-12-01T03:40:39.325Z,101712.31
2022-12-01T03:43:15.868Z,101713.50
2022-12-01T03:46:18.467Z,101718.22
2022-12-01T03:48:46.447Z,101719.19
2022-12-01T03:51:43.258Z,101710.13
2022-12-01T03:54:55.283Z,101713.78
2022-12-01T03:57:31.966Z,101708.22
2022-12-01T03:59:58.997Z,101710.75
2022-12-01T04:02:28.947Z,101712.09
2022-12-01T04:04:55.915Z,101709.91
2022-12-01T04:07:23.650Z,101704.28
2022-12-01T04:09:50.986Z,101712.44
2022-12-01T04:12:30.588Z,101707.88
2022-12-01T04:15:02.401Z,101710.75
2022-12-01T04:17:30.154Z,101713.38
2022-12-01T04:19:57.582Z,101714.91
2022-12-01T04:22:26.173Z,101711.16
2022-12-01T04:24:54.135Z,101707.66
2022-12-01T04:27:21.220Z,101706.00
2022-12-01T04:29:48.462Z,101711.25
2022-12-01T04:32:15.724Z,101700.25
2022-12-01T04:34:42.704Z,101712.44
2022-12-01T04:37:10.146Z,101715.03
2022-12-01T04:39:37.619Z,101717.09
2022-12-01T04:42:05.153Z,101709.75
2022-12-01T04:44:35.056Z,101710.25
2022-12-01T04:47:04.121Z,101719.47
2022-12-01T04:49:31.697Z,101717.06
2022-12-01T04:51:58.733Z,101724.28
2022-12-01T04:54:25.801Z,101721.66
2022-12-01T04:56:52.773Z,101721.31
2022-12-01T04:59:19.766Z,101725.88
2022-12-01T05:01:48.259Z,101722.16
2022-12-01T05:04:15.728Z,101734.19
2022-12-01T05:06:43.315Z,101724.69
2022-12-01T05:09:17.598Z,101722.56
2022-12-01T05:11:45.140Z,101725.34
2022-12-01T05:14:12.235Z,101736.28
2022-12-01T05:16:39.296Z,101725.88
2022-12-01T05:19:25.746Z,101729.00
2022-12-01T05:21:52.979Z,101722.63
2022-12-01T05:24:21.223Z,101729.66
2022-12-01T05:26:48.348Z,101725.19
2022-12-01T05:29:15.442Z,101716.16
2022-12-01T05:31:42.503Z,101722.00
2022-12-01T05:34:10.012Z,101721.31
2022-12-01T05:36:37.107Z,101730.47
2022-12-01T05:39:04.881Z,101728.41
2022-12-01T05:41:31.878Z,101717.81
2022-12-01T05:43:58.977Z,101730.81
2022-12-01T05:46:26.026Z,101715.25
2022-12-01T05:48:53.032Z,101729.00
2022-12-01T05:51:20.113Z,101729.13
2022-12-01T05:53:47.064Z,101726.47
2022-12-01T05:56:14.092Z,101731.78
2022-12-01T05:58:41.033Z,101730.84
2022-12-01T06:01:08.618Z,101728.28
2022-12-01T06:03:35.543Z,101727.38
2022-12-01T06:06:02.537Z,101730.19
2022-12-01T06:08:29.465Z,101733.78
2022-12-01T06:10:56.376Z,101738.47
2022-12-01T06:13:23.638Z,101734.47
2022-12-01T06:16:05.602Z,101736.13
2022-12-01T06:18:39.036Z,101732.19
2022-12-01T06:21:07.246Z,101730.66
2022-12-01T06:23:34.652Z,101732.97
2022-12-01T06:26:01.975Z,101732.06
2022-12-01T06:28:28.866Z,101722.59
2022-12-01T06:31:02.594Z,101723.44
2022-12-01T06:33:31.577Z,101718.34
2022-12-01T06:36:02.581Z,101733.03
2022-12-01T06:38:37.251Z,101729.25
2022-12-01T06:41:05.519Z,101730.44
2022-12-01T06:43:35.284Z,101726.56
2022-12-01T06:46:06.975Z,101726.78
2022-12-01T06:48:34.535Z,101726.94
2022-12-01T06:51:02.337Z,101730.19
2022-12-01T06:53:29.848Z,101728.75
2022-12-01T06:56:04.726Z,101733.34
2022-12-01T06:58:32.544Z,101722.38
2022-12-01T07:00:59.928Z,101719.66
2022-12-01T07:03:27.133Z,101723.41
2022-12-01T07:05:59.114Z,101730.44
2022-12-01T07:08:28.539Z,101722.59
2022-12-01T07:11:08.421Z,101731.44
2022-12-01T07:13:36.135Z,101724.69
2022-12-01T07:16:04.407Z,101729.59
2022-12-01T07:18:33.008Z,101730.25
2022-12-01T07:21:01.859Z,101718.00
2022-12-01T07:23:29.226Z,101724.47
2022-12-01T07:26:05.325Z,101728.97
2022-12-01T07:28:32.691Z,101716.59
2022-12-01T07:31:19.683Z,101719.41
2022-12-01T07:33:46.714Z,101728.50
2022-12-01T07:36:14.552Z,101729.13
2022-12-01T07:38:42.301Z,101728.53
2022-12-01T07:41:12.600Z,101723.97
2022-12-01T07:43:40.696Z,101725.53
2022-12-01T07:46:24.006Z,101728.81
2022-12-01T07:48:53.107Z,101735.09
2022-12-01T07:51:21.392Z,101730.88
2022-12-01T07:53:50.329Z,101726.56
2022-12-01T07:56:19.128Z,101730.81
2022-12-01T07:58:46.681Z,101725.59
2022-12-01T08:01:22.637Z,101724.03
2022-12-01T08:03:52.420Z,101732.59
2022-12-01T08:06:20.389Z,101731.19
2022-12-01T08:08:47.862Z,101720.81
2022-12-01T08:11:22.830Z,101730.78
2022-12-01T08:13:51.299Z,101734.75
2022-12-01T08:16:20.746Z,101716.81
2022-12-01T08:18:47.959Z,101730.19
2022-12-01T08:21:19.257Z,101730.53
2022-12-01T08:23:46.740Z,101724.78
2022-12-01T08:26:19.001Z,101717.56
2022-12-01T08:28:46.929Z,101726.22
2022-12-01T08:31:23.927Z,101727.25
2022-12-01T08:33:51.447Z,101724.81
2022-12-01T08:36:19.946Z,101729.66
2022-12-01T08:38:49.910Z,101723.53
2022-12-01T08:41:17.318Z,101726.59
2022-12-01T08:44:01.349Z,101737.25
2022-12-01T08:46:33.065Z,101739.00
2022-12-01T08:49:01.511Z,101738.50
2022-12-01T08:51:28.808Z,101742.25
2022-12-01T08:53:57.616Z,101739.44
2022-12-01T08:56:35.853Z,101743.31
2022-12-01T08:59:03.447Z,101740.75
2022-12-01T09:01:30.595Z,101740.16
2022-12-01T09:04:06.163Z,101742.09
2022-12-01T09:06:43.062Z,101741.69
2022-12-01T09:09:16.402Z,101736.75
2022-12-01T09:11:44.291Z,101744.03
2022-12-01T09:14:16.413Z,101741.78
2022-12-01T09:16:46.392Z,101748.69
2022-12-01T09:19:17.927Z,101741.41
2022-12-01T09:21:49.214Z,101740.88
2022-12-01T09:24:16.517Z,101739.41
2022-12-01T09:26:43.633Z,101739.97
2022-12-01T09:29:14.927Z,101744.09
2022-12-01T09:31:43.230Z,101741.28
2022-12-01T09:34:17.799Z,101731.25
2022-12-01T09:36:45.836Z,101737.22
2022-12-01T09:39:16.559Z,101740.50
2022-12-01T09:41:45.690Z,101730.59
2022-12-01T09:44:41.995Z,101727.25
2022-12-01T09:47:34.878Z,101737.19
2022-12-01T09:50:16.604Z,101737.13
2022-12-01T09:52:55.994Z,101736.22
2022-12-01T09:55:24.904Z,101737.22
2022-12-01T09:57:55.682Z,101723.69
2022-12-01T10:00:32.677Z,101719.97
2022-12-01T10:03:33.588Z,101728.00
2022-12-01T10:06:26.579Z,101732.34
2022-12-01T10:09:39.540Z,101727.00
2022-12-01T10:12:19.912Z,101716.03
2022-12-01T10:14:48.634Z,101729.88
2022-12-01T10:17:39.097Z,101730.66
2022-12-01T10:20:24.357Z,101719.75
2022-12-01T10:23:34.977Z,101716.78
2022-12-01T10:26:17.869Z,101715.13
2022-12-01T10:29:05.734Z,101722.78
2022-12-01T10:31:44.807Z,101705.25
2022-12-01T10:34:38.375Z,101709.41
2022-12-01T10:37:06.564Z,101697.47
2022-12-01T10:39:44.491Z,101695.44
2022-12-01T10:42:20.111Z,101692.84
2022-12-01T10:44:47.290Z,101691.97
2022-12-01T10:47:22.115Z,101697.25
2022-12-01T10:49:49.674Z,101695.47
2022-12-01T10:52:41.457Z,101686.59
2022-12-01T10:55:28.098Z,101695.88
2022-12-01T10:57:59.182Z,101683.44
2022-12-01T11:00:58.722Z,101675.25
2022-12-01T11:03:24.315Z,101682.97
2022-12-01T11:05:57.957Z,101678.66
2022-12-01T11:08:40.439Z,101667.81
2022-12-01T11:11:36.260Z,101674.56
2022-12-01T11:14:16.275Z,101671.44
2022-12-01T11:16:47.973Z,101675.25
2022-12-01T11:19:34.717Z,101670.59
2022-12-01T11:22:21.664Z,101664.66
2022-12-01T11:25:04.755Z,101670.66
2022-12-01T11:27:54.260Z,101671.69
2022-12-01T11:30:26.046Z,101674.66
2022-12-01T11:33:00.746Z,101679.75
2022-12-01T11:35:35.201Z,101669.06
2022-12-01T11:38:28.777Z,101670.50
2022-12-01T11:40:56.315Z,101664.91
2022-12-01T11:44:00.791Z,101670.47
2022-12-01T11:46:50.109Z,101669.16
2022-12-01T11:49:30.007Z,101671.88
2022-12-01T11:51:56.933Z,101675.31
2022-12-01T11:54:27.020Z,101673.66
2022-12-01T11:57:25.457Z,101675.47
2022-12-01T11:59:42.411Z,101671.53
2022-12-01T12:02:33.888Z,101679.41
2022-12-01T12:05:37.006Z,101667.94
2022-12-01T12:08:17.379Z,101669.59
2022-12-01T12:11:15.071Z,101665.19
2022-12-01T12:14:07.206Z,101655.84
2022-12-01T12:16:50.833Z,101656.31
2022-12-01T12:20:06.244Z,101655.97
2022-12-01T12:22:54.961Z,101659.53
2022-12-01T12:26:02.704Z,101663.34
2022-12-01T12:29:13.972Z,101663.38
2022-12-01T12:32:19.643Z,101661.13
2022-12-01T12:34:58.700Z,101663.66
2022-12-01T12:37:52.765Z,101670.59
2022-12-01T12:40:46.100Z,101666.41
2022-12-01T12:43:41.507Z,101656.91
2022-12-01T12:46:20.780Z,101655.19
2022-12-01T12:49:50.157Z,101653.38
2022-12-01T12:52:26.117Z,101648.91
2022-12-01T12:55:00.309Z,101662.97
2022-12-01T12:57:40.848Z,101654.56
2022-12-01T13:00:16.087Z,101664.19
2022-12-01T13:02:55.596Z,101657.34
2022-12-01T13:05:43.590Z,101656.22
2022-12-01T13:08:53.445Z,101655.91
2022-12-01T13:11:38.463Z,101660.69
2022-12-01T13:14:13.605Z,101660.41
2022-12-01T13:16:50.695Z,101661.88
2022-12-01T13:19:44.280Z,101652.47
2022-12-01T13:22:14.762Z,101654.09
2022-12-01T13:24:42.619Z,101650.28
2022-12-01T13:27:13.268Z,101657.69
2022-12-01T13:29:50.819Z,101651.72
2022-12-01T13:32:37.856Z,101647.44
2022-12-01T13:35:20.485Z,101650.09
2022-12-01T13:37:48.163Z,101645.56
2022-12-01T13:40:30.958Z,101642.81
2022-12-01T13:43:10.286Z,101644.97
2022-12-01T13:45:40.282Z,101630.81
2022-12-01T13:48:37.863Z,101644.88
2022-12-01T13:51:05.100Z,101633.06
2022-12-01T13:53:39.223Z,101637.63
2022-12-01T13:56:24.514Z,101640.13
2022-12-01T13:58:54.856Z,101645.69
2022-12-01T14:01:22.051Z,101647.53
2022-12-01T14:04:11.332Z,101652.78
2022-12-01T14:06:50.874Z,101655.38
2022-12-01T14:09:44.243Z,101650.75
2022-12-01T14:12:34.398Z,101653.13
2022-12-01T14:15:20.727Z,101652.09
2022-12-01T14:17:53.641Z,101661.16
2022-12-01T14:20:23.011Z,101664.13
2022-12-01T14:23:24.982Z,101667.56
2022-12-01T14:26:23.298Z,101662.63
2022-12-01T14:28:56.231Z,101663.19
2022-12-01T14:31:46.641Z,101661.56
2022-12-01T14:34:24.522Z,101658.56
2022-12-01T14:37:13.440Z,101658.78
2022-12-01T14:39:58.195Z,101659.94
2022-12-01T14:42:56.542Z,101658.44
2022-12-01T14:45:41.724Z,101661.00
2022-12-01T14:48:26.925Z,101659.25
2022-12-01T14:51:18.138Z,101653.53
2022-12-01T14:53:48.540Z,101651.28
2022-12-01T14:56:20.241Z,101645.78
2022-12-01T14:59:22.177Z,101650.94
2022-12-01T15:01:52.600Z,101654.09
2022-12-01T15:04:20.021Z,101658.69
2022-12-01T15:06:47.377Z,101655.38
2022-12-01T15:09:36.530Z,101654.13
2022-12-01T15:12:08.645Z,101650.13
2022-12-01T15:14:49.636Z,101642.56
2022-12-01T15:17:34.519Z,101643.84
2022-12-01T15:20:01.544Z,101649.69
2022-12-01T15:22:33.473Z,101649.19
2022-12-01T15:25:13.372Z,101642.59
2022-12-01T15:27:40.391Z,101647.91
2022-12-01T15:30:14.427Z,101649.41
2022-12-01T15:32:45.765Z,101650.94
2022-12-01T15:35:22.399Z,101645.66
2022-12-01T15:37:50.863Z,101649.25
2022-12-01T15:43:21.561Z,101640.84
2022-12-01T15:45:57.023Z,101657.94
2022-12-01T15:48:36.742Z,101654.94
2022-12-01T15:51:18.488Z,101655.03
2022-12-01T15:53:58.180Z,101646.94
2022-12-01T15:56:29.810Z,101656.16
2022-12-01T15:59:33.630Z,101663.47
2022-12-01T16:02:34.186Z,101664.34
2022-12-01T16:05:19.090Z,101670.78
2022-12-01T16:08:12.765Z,101674.56
2022-12-01T16:10:36.710Z,101671.53
2022-12-01T16:13:43.954Z,101684.28
2022-12-01T16:16:39.263Z,101677.38
2022-12-01T16:19:33.828Z,101679.00
2022-12-01T16:22:02.556Z,101672.19
2022-12-01T16:24:36.528Z,101675.97
2022-12-01T16:27:21.595Z,101672.09
2022-12-01T16:30:02.727Z,101673.59
2022-12-01T16:32:41.611Z,101677.72
2022-12-01T16:35:29.332Z,101679.84
2022-12-01T16:37:57.657Z,101692.34
2022-12-01T16:40:25.229Z,101682.88
2022-12-01T16:42:52.543Z,101689.59
2022-12-01T16:45:20.244Z,101690.69
2022-12-01T16:47:49.444Z,101688.69
2022-12-01T16:50:19.615Z,101683.03
2022-12-01T16:52:47.052Z,101694.25
2022-12-01T16:55:43.880Z,101681.50
2022-12-01T16:58:10.823Z,101680.97
2022-12-01T17:00:37.953Z,101681.38
2022-12-01T17:03:06.157Z,101676.41
2022-12-01T17:05:34.105Z,101679.25
2022-12-01T17:08:01.132Z,101681.28
2022-12-01T17:10:28.223Z,101674.03
2022-12-01T17:12:55.147Z,101676.31
2022-12-01T17:15:22.083Z,101676.53
2022-12-01T17:17:49.958Z,101682.16
2022-12-01T17:20:17.351Z,101675.56
2022-12-01T17:22:44.279Z,101677.53
2022-12-01T17:25:11.325Z,101675.13
2022-12-01T17:27:38.908Z,101673.28
2022-12-01T17:30:07.549Z,101682.69
2022-12-01T17:32:34.481Z,101678.56
2022-12-01T17:35:01.459Z,101676.53
2022-12-01T17:37:30.085Z,101677.47
2022-12-01T17:39:57.078Z,101681.59
2022-12-01T17:42:24.074Z,101667.31
2022-12-01T17:44:51.299Z,101680.28
2022-12-01T17:47:18.495Z,101678.91
2022-12-01T17:49:45.447Z,101668.91
2022-12-01T17:52:12.468Z,101676.81
2022-12-01T17:54:39.429Z,101679.34
2022-12-01T17:57:07.491Z,101664.81
2022-12-01T17:59:36.813Z,101672.81
2022-12-01T18:02:04.663Z,101670.75
2022-12-01T18:04:31.900Z,101668.78
2022-12-01T18:06:59.213Z,101672.06
2022-12-01T18:09:26.507Z,101678.88
2022-12-01T18:11:58.762Z,101666.28
2022-12-01T18:14:26.668Z,101676.19
2022-12-01T18:16:53.823Z,101667.00
2022-12-01T18:19:21.306Z,101666.75
2022-12-01T18:21:50.177Z,101658.00
2022-12-01T18:24:17.082Z,101661.97
2022-12-01T18:26:44.144Z,101668.75
2022-12-01T18:29:16.248Z,101681.25
2022-12-01T18:31:43.655Z,101674.22
2022-12-01T18:34:13.021Z,101682.19
2022-12-01T18:36:41.196Z,101675.94
2022-12-01T18:39:11.086Z,101678.53
2022-12-01T18:41:38.831Z,101664.84
2022-12-01T18:44:06.280Z,101677.19
2022-12-01T18:46:33.842Z,101671.56
2022-12-01T18:49:02.729Z,101676.44
2022-12-01T18:51:35.331Z,101670.78
2022-12-01T18:54:04.676Z,101669.44
2022-12-01T18:56:32.829Z,101672.94
2022-12-01T18:59:06.644Z,101676.34
2022-12-01T19:01:40.899Z,101677.59
2022-12-01T19:04:09.909Z,101685.50
2022-12-01T19:06:39.508Z,101674.66
2022-12-01T19:09:09.414Z,101677.91
2022-12-01T19:11:37.966Z,101679.56
2022-12-01T19:14:05.277Z,101685.84
2022-12-01T19:16:32.785Z,101676.25
2022-12-01T19:19:01.000Z,101686.75
2022-12-01T19:21:27.896Z,101680.84
2022-12-01T19:23:54.834Z,101689.84
2022-12-01T19:26:23.052Z,101681.91
2022-12-01T19:28:50.361Z,101678.84
2022-12-01T19:31:23.711Z,101675.13
2022-12-01T19:33:52.674Z,101682.03
2022-12-01T19:36:28.513Z,101666.91
2022-12-01T19:39:00.403Z,101677.63
2022-12-01T19:41:28.600Z,101680.47
2022-12-01T19:43:56.020Z,101674.50
2022-12-01T19:46:25.224Z,101681.69
2022-12-01T19:49:00.427Z,101679.22
2022-12-01T19:51:37.642Z,101683.25
2022-12-01T19:54:07.703Z,101672.06
2022-12-01T19:56:34.947Z,101678.94
2022-12-01T19:59:02.455Z,101668.84
2022-12-01T20:01:29.529Z,101663.50
2022-12-01T20:03:56.649Z,101671.16
2022-12-01T20:06:27.808Z,101666.09
2022-12-01T20:09:01.235Z,101664.38
2022-12-01T20:11:35.440Z,101665.75
2022-12-01T20:14:04.910Z,101677.38
2022-12-01T20:16:32.288Z,101671.44
2022-12-01T20:19:04.612Z,101675.09
2022-12-01T20:21:35.562Z,101675.84
2022-12-01T20:24:06.815Z,101676.63
2022-12-01T20:26:38.487Z,101675.81
2022-12-01T20:29:20.473Z,101667.13
2022-12-01T20:31:50.041Z,101678.22
2022-12-01T20:34:23.642Z,101682.25
2022-12-01T20:36:50.528Z,101678.41
2022-12-01T20:39:17.937Z,101672.03
2022-12-01T20:41:45.542Z,101679.22
2022-12-01T20:44:13.733Z,101671.75
2022-12-01T20:46:45.793Z,101675.72
2022-12-01T20:49:13.820Z,101673.38
2022-12-01T20:51:40.940Z,101682.13
2022-12-01T20:54:28.294Z,101674.00
2022-12-01T20:56:56.705Z,101673.84
2022-12-01T20:59:23.726Z,101674.28
2022-12-01T21:01:50.829Z,101667.94
2022-12-01T21:04:17.907Z,101667.44
2022-12-01T21:06:45.048Z,101664.56
2022-12-01T21:09:13.223Z,101661.97
2022-12-01T21:12:07.773Z,101653.34
2022-12-01T21:15:01.705Z,101662.19
2022-12-01T21:17:41.070Z,101662.63
2022-12-01T21:20:36.030Z,101664.03
2022-12-01T21:23:16.270Z,101659.75
2022-12-01T21:25:44.665Z,101674.53
2022-12-01T21:28:23.459Z,101674.72
2022-12-01T21:31:10.749Z,101668.81
2022-12-01T21:33:39.314Z,101662.34
2022-12-01T21:36:22.341Z,101665.84
2022-12-01T21:38:55.129Z,101660.53
2022-12-01T21:41:30.175Z,101660.66
2022-12-01T21:44:07.676Z,101668.19
2022-12-01T21:46:35.306Z,101661.41
2022-12-01T21:49:02.421Z,101661.94
2022-12-01T21:51:30.850Z,101663.31
2022-12-01T21:53:58.011Z,101661.97
2022-12-01T21:56:28.076Z,101656.00
2022-12-01T21:59:06.586Z,101659.69
2022-12-01T22:01:35.026Z,101659.38
2022-12-01T22:04:12.859Z,101654.91
2022-12-01T22:06:44.570Z,101648.31
2022-12-01T22:09:33.768Z,101657.84
2022-12-01T22:12:12.962Z,101650.38
2022-12-01T22:14:40.050Z,101661.97
2022-12-01T22:17:06.829Z,101657.03
2022-12-01T22:19:44.779Z,101660.34
2022-12-01T22:22:11.580Z,101656.16
2022-12-01T22:24:44.039Z,101658.19
2022-12-01T22:27:38.030Z,101657.28
2022-12-01T22:30:08.012Z,101651.09
2022-12-01T22:32:48.394Z,101643.13
2022-12-01T22:35:41.043Z,101651.84
2022-12-01T22:38:10.773Z,101651.72
2022-12-01T22:40:47.777Z,101649.44
2022-12-01T22:43:17.542Z,101659.50
2022-12-01T22:45:48.808Z,101646.94
2022-12-01T22:48:44.973Z,101657.31
2022-12-01T22:51:31.109Z,101649.66
2022-12-01T22:54:04.065Z,101652.28
2022-12-01T22:57:09.532Z,101651.22
2022-12-01T22:59:40.321Z,101645.22
2022-12-01T23:02:31.681Z,101638.78
2022-12-01T23:05:21.917Z,101642.03
2022-12-01T23:07:49.522Z,101637.31
2022-12-01T23:10:22.327Z,101637.91
2022-12-01T23:12:53.044Z,101634.63
2022-12-01T23:15:40.228Z,101633.28
2022-12-01T23:18:20.856Z,101631.75
2022-12-01T23:21:00.216Z,101632.53
2022-12-01T23:23:33.770Z,101624.28
2022-12-01T23:26:07.884Z,101627.06
2022-12-01T23:28:39.181Z,101637.00
2022-12-01T23:31:06.392Z,101631.38
2022-12-01T23:33:34.932Z,101639.13
2022-12-01T23:36:12.393Z,101644.03
2022-12-01T23:38:48.055Z,101637.03
2022-12-01T23:41:26.823Z,101636.88
2022-12-01T23:43:55.923Z,101633.22
2022-12-01T23:46:25.162Z,101641.75
2022-12-01T23:49:00.502Z,101634.59
2022-12-01T23:51:37.115Z,101634.59
2022-12-01T23:54:23.874Z,101624.06
2022-12-01T23:56:57.616Z,101636.44
2022-12-01T23:59:25.759Z,101620.09
